Terminal Aerodrome Forecast
Issued by NWS Grand Forks, ND

Home | Current Version | Previous Version | Text Only | Print | Product List | Glossary On
Versions: 1 2 3 4 5 6 7 8 9 10 11 12 13
000
FTUS43 KFGF 202321
TAFFAR
TAF
KFAR 202321Z 2100/2124 VRB06KT P6SM SCT200
     FM211300 VRB04KT P6SM BKN050
     FM211500 VRB05KT P6SM BKN035=

USA.gov is the U.S. government's official web portal to all federal, state and local government web resources and services.